Estaciones Metar próximas

 

LELL - Sabadell, Spain
Distancia a la estación: E 18km
Actualizado: 28/07/2021 03:00
Despejado
Despejado
 Viento del calm
Viento: Calma
Temperatura: 21°C
Rocío: 17°C
Humedad: 78%
Barómetro: 1014 hPa
Resumen: Despejado
Visibilidad: greater than 10 km
2021/07/28 01:00 LELL 280100Z AUTO 00000KT CAVOK 21/17 Q1014
LEBL - Barcelona Airpor, Spain
Distancia a la estación: SSE 33km
Actualizado: 28/07/2021 03:00
Parcialmente nuboso
Parcialmente nuboso
 Viento del varies
Viento: varies 2 km/h
Temperatura: 23°C
Rocío: 19°C
Humedad: 78%
Barómetro: 1013 hPa
Nubes: Parcialmente nuboso
Visibilidad: 10 km
Detalle Nubes: Nubes dispersas 610 m
Parcialmente nuboso 762 m
2021/07/28 01:00 LEBL 280100Z VRB01KT 9999 FEW020 SCT025 23/19 Q1013 NOSIG
LERS - Reus (civ/Mil), Spain
Distancia a la estación: SO 75km
Actualizado: 28/07/2021 03:00
Parcialmente nuboso
Parcialmente nuboso
 Viento del calm
Viento: Calma
Temperatura: 21°C
Rocío: 19°C
Humedad: 88%
Barómetro: 1013 hPa
Nubes: Parcialmente nuboso
Visibilidad: 10 km
Detalle Nubes: Nubes dispersas 518 m
Parcialmente nuboso 732 m
2021/07/28 01:00 LERS 280100Z AUTO 00000KT 9999 FEW017 SCT024 21/19 Q1013
 
LEGE - Gerona/Costa Bra, Spain
Distancia a la estación: ENE 83km
Actualizado: 28/07/2021 03:00
Despejado
Despejado
 Viento del varies
Viento: varies 2 km/h
Temperatura: 20°C
Rocío: 18°C
Humedad: 88%
Barómetro: 1013 hPa
Resumen: Despejado
Visibilidad: greater than 10 km
2021/07/28 01:00 LEGE 280100Z VRB01KT CAVOK 20/18 Q1013
LFMP - Perpignan/Rivesa, France
Distancia a la estación: NNE 155km
Actualizado: 28/07/2021 03:00
Tormenta
Tormenta
 Viento del NO
Viento: NO 13 km/h
Temperatura: 24°C
Rocío: 14°C
Humedad: 54%
Barómetro: 1014 hPa
Nubes: Tormenta
Visibilidad: 10 km
2021/07/28 01:00 LFMP 280100Z AUTO 32007KT 270V350 9999 ///TCU 24/14 Q1014
LFMK - Carcassonne/Salv, France
Distancia a la estación: N 191km
Actualizado: 28/07/2021 03:00
Lluvia débil, Tormenta
Lluvia débil, Tormenta
 Viento del O
Viento: O 19 km/h
Temperatura: 20°C
Rocío: 16°C
Humedad: 78%
Barómetro: 1016 hPa
Resumen: Lluvia débil
Nubes: Tormenta
Visibilidad: 10 km
Detalle Nubes: Cubierto 1402 m
2021/07/28 01:00 LFMK 280100Z AUTO 26010KT 9999 -RA OVC046/// ///TCU 20/16 Q1016
 
LEHC - Huesca-Pirineos, Spain
Distancia a la estación: ONO 193km
Actualizado: 28/07/2021 03:00
Despejado
Despejado
 Viento del E
Viento: E 7 km/h
Temperatura: 21°C
Rocío: 15°C
Humedad: 69%
Barómetro: 1015 hPa
Resumen: Despejado
Visibilidad: greater than 10 km
2021/07/28 01:00 LEHC 280100Z AUTO 08004KT 040V110 CAVOK 21/15 Q1015
LFMU - Beziers/Vias, France
Distancia a la estación: NNE 232km
Actualizado: 28/07/2021 03:00
Despejado
Despejado
 Viento del NNO
Viento: NNO 9 km/h
Temperatura: 22°C
Rocío: 20°C
Humedad: 88%
Barómetro: 1014 hPa
Resumen: Despejado
Visibilidad: greater than 10 km
2021/07/28 01:00 LFMU 280100Z AUTO 33005KT CAVOK 22/20 Q1014
LEPA - Palma De Mallorc, Spain
Distancia a la estación: SSE 233km
Actualizado: 28/07/2021 03:00
Despejado
Despejado
 Viento del E
Viento: E 6 km/h
Temperatura: 22°C
Rocío: 19°C
Humedad: 83%
Barómetro: 1013 hPa
Resumen: Despejado
Visibilidad: greater than 10 km
2021/07/28 01:00 LEPA 280100Z 08003KT CAVOK 22/19 Q1013 NOSIG
 
LFBO - Toulouse/Blagnac, France
Distancia a la estación: N 236km
Actualizado: 28/07/2021 03:00
Lluvia intensa, Mist, Tormenta
Lluvia intensa, Mist, Tormenta
 Viento del NO
Viento: NO 17 km/h
Temperatura: 17°C
Rocío: 16°C
Humedad: 94%
Barómetro: 1017 hPa
Resumen: Lluvia intensa, Mist
Nubes: Tormenta
Visibilidad: 3 km
Detalle Nubes: Parcialmente nuboso 427 m
Muy nuboso 853 m
Muy nuboso 1158 m
2021/07/28 01:00 LFBO 280100Z AUTO 32009KT 2700 +RA BR SCT014/// BKN028/// BKN038/// ///CB 17/16 Q1017 TEMPO TSRA BKN006 BKN035CB
LFBT - Tarbes/Ossun, France
Distancia a la estación: NO 239km
Actualizado: 28/07/2021 03:00
Tormenta
Tormenta
 Viento del varies
Viento: varies 6 km/h
Temperatura: 16°C
Rocío: 15°C
Humedad: 94%
Barómetro: 1018 hPa
Nubes: Tormenta
Visibilidad: 10 km
Detalle Nubes: Cubierto 1006 m
2021/07/28 01:00 LFBT 280100Z AUTO VRB03KT 9999 OVC033/// ///CB 16/15 Q1018 TEMPO 4000 RA BKN004 SCT030CB
LEZG - Zaragoza (mil/Ci, Spain
Distancia a la estación: O 242km
Actualizado: 28/07/2021 03:00
Despejado
Despejado
 Viento del ONO
Viento: ONO 31 km/h
Temperatura: 20°C
Rocío: 13°C
Humedad: 64%
Barómetro: 1015 hPa
Resumen: Despejado
Visibilidad: greater than 10 km
2021/07/28 01:00 LEZG 280100Z 29017KT CAVOK 20/13 Q1015